Time;durP1;ratioP1;P1;durP2;ratioP2;P2;SDS_P1;SDS_P2;PMS_P1;PMS_P2;Temp;Humidity;BMP_temperature;BMP_pressure;BME280_temperature;BME280_humidity;BME280_pressure;Samples;Min_cycle;Max_cycle;Signal;HPM_P1;HPM_P2
2021/03/07 00:02:14;;;;;;;8.35;5.00;;;6.10;74.90;;;;;;5080754;28;20032;-60
2021/03/07 00:04:40;;;;;;;8.25;4.90;;;6.10;75.40;;;;;;5075841;28;20563;-60
2021/03/07 00:07:05;;;;;;;8.50;5.90;;;6.00;75.30;;;;;;5082631;28;20038;-60
2021/03/07 00:09:31;;;;;;;8.93;5.90;;;6.10;75.90;;;;;;5082692;28;20032;-60
2021/03/07 00:11:57;;;;;;;14.18;6.60;;;6.10;75.70;;;;;;5082414;28;20690;-59
2021/03/07 00:14:22;;;;;;;9.82;5.25;;;6.00;75.70;;;;;;5080381;28;20035;-60
2021/03/07 00:16:48;;;;;;;9.85;5.75;;;6.00;76.20;;;;;;5079779;28;20036;-60
2021/03/07 00:19:14;;;;;;;8.88;5.35;;;6.00;76.30;;;;;;5080036;28;20036;-59
2021/03/07 00:21:39;;;;;;;10.00;5.75;;;6.00;75.80;;;;;;5080111;28;20032;-60
2021/03/07 00:24:05;;;;;;;8.73;5.38;;;6.10;76.00;;;;;;5078883;28;20043;-60
2021/03/07 00:26:31;;;;;;;8.73;5.03;;;6.10;75.80;;;;;;5079502;28;20028;-60
2021/03/07 00:28:57;;;;;;;8.27;5.78;;;6.10;75.80;;;;;;5080700;28;20849;-60
2021/03/07 00:31:22;;;;;;;8.02;5.57;;;6.10;75.40;;;;;;5080618;28;20035;-60
2021/03/07 00:33:48;;;;;;;9.52;6.20;;;6.10;75.50;;;;;;5079413;28;20145;-60
2021/03/07 00:36:14;;;;;;;9.15;6.38;;;6.10;75.50;;;;;;5080020;28;20033;-60
2021/03/07 00:38:39;;;;;;;9.57;5.43;;;6.00;75.60;;;;;;5079617;28;20475;-60
2021/03/07 00:41:05;;;;;;;13.52;6.15;;;6.00;76.30;;;;;;5079510;28;20034;-60
2021/03/07 00:43:31;;;;;;;10.55;5.60;;;6.00;76.10;;;;;;5079259;28;20032;-60
2021/03/07 00:45:56;;;;;;;9.80;5.93;;;6.10;76.00;;;;;;5079938;28;20495;-60
2021/03/07 00:48:22;;;;;;;7.60;5.70;;;6.00;76.10;;;;;;5079506;28;20028;-60
2021/03/07 00:50:48;;;;;;;7.85;5.10;;;6.00;76.20;;;;;;5080377;28;20726;-60
2021/03/07 00:53:13;;;;;;;12.20;6.25;;;5.90;76.10;;;;;;5079802;28;20036;-60
2021/03/07 00:55:39;;;;;;;11.30;6.07;;;5.90;76.60;;;;;;5078376;28;20066;-60
2021/03/07 00:58:05;;;;;;;8.93;6.03;;;6.00;76.50;;;;;;5079493;28;20883;-60
2021/03/07 01:00:31;;;;;;;8.45;5.38;;;5.90;76.10;;;;;;5078647;28;20036;-60
2021/03/07 01:02:57;;;;;;;10.57;5.95;;;5.90;76.30;;;;;;5082009;28;20027;-60
2021/03/07 01:05:29;;;;;;;7.63;5.43;;;5.90;76.50;;;;;;5082283;28;20042;-60
2021/03/07 01:07:55;;;;;;;6.70;5.03;;;5.90;76.60;;;;;;5082941;28;20039;-60
2021/03/07 01:10:35;;;;;;;9.65;6.13;;;5.80;76.60;;;;;;5083630;28;20067;-60
2021/03/07 01:13:00;;;;;;;8.07;5.13;;;5.80;77.10;;;;;;5083015;28;20086;-60
2021/03/07 01:15:30;;;;;;;7.38;4.53;;;5.70;76.40;;;;;;5082982;28;20063;-60
2021/03/07 01:17:56;;;;;;;10.63;5.00;;;5.70;76.80;;;;;;5080160;28;20051;-60
2021/03/07 01:20:22;;;;;;;8.85;4.93;;;5.70;76.50;;;;;;5082283;28;20062;-60
2021/03/07 01:22:49;;;;;;;6.03;4.15;;;5.60;76.40;;;;;;5082742;28;20036;-60
2021/03/07 01:25:16;;;;;;;6.50;4.18;;;5.60;75.40;;;;;;5082131;28;20123;-60
2021/03/07 01:27:42;;;;;;;16.70;4.75;;;5.70;75.20;;;;;;5082817;28;20085;-59
2021/03/07 01:30:09;;;;;;;5.82;4.00;;;5.70;75.20;;;;;;5083088;28;20036;-59
2021/03/07 01:32:36;;;;;;;7.22;4.05;;;5.70;75.00;;;;;;5083236;28;21017;-60
2021/03/07 01:35:04;;;;;;;5.78;3.55;;;5.70;75.10;;;;;;5082879;28;20122;-59
2021/03/07 01:37:30;;;;;;;5.47;3.78;;;5.70;75.10;;;;;;5082846;28;20058;-60
2021/03/07 01:39:56;;;;;;;6.53;3.90;;;5.70;74.80;;;;;;5082325;28;20085;-60
2021/03/07 01:42:22;;;;;;;15.52;4.80;;;5.70;75.30;;;;;;5081800;28;20447;-59
2021/03/07 01:44:48;;;;;;;9.02;4.50;;;5.70;76.00;;;;;;5080226;28;20093;-59
2021/03/07 01:47:29;;;;;;;7.82;4.35;;;5.70;75.90;;;;;;5080841;28;20040;-60
2021/03/07 01:49:55;;;;;;;4.00;3.35;;;5.60;75.60;;;;;;5081480;28;20071;-60
2021/03/07 01:52:21;;;;;;;10.50;4.03;;;5.60;75.70;;;;;;5081638;28;20125;-60
2021/03/07 01:54:47;;;;;;;9.68;3.40;;;5.60;75.30;;;;;;5080706;28;20113;-60
2021/03/07 01:57:16;;;;;;;5.88;3.55;;;5.60;75.20;;;;;;5080992;28;20085;-60
2021/03/07 01:59:43;;;;;;;4.15;3.05;;;5.50;73.90;;;;;;5081920;28;20073;-60
2021/03/07 02:02:09;;;;;;;5.05;2.33;;;5.50;74.60;;;;;;5081522;28;20262;-60
2021/03/07 02:04:34;;;;;;;5.32;2.72;;;5.50;74.30;;;;;;5083038;28;20110;-60
2021/03/07 02:07:00;;;;;;;5.32;2.63;;;5.50;74.50;;;;;;5081271;28;20036;-60
2021/03/07 02:09:26;;;;;;;5.70;2.70;;;5.50;74.60;;;;;;5081525;28;20785;-60
2021/03/07 02:11:52;;;;;;;6.40;2.72;;;5.50;73.90;;;;;;5081637;28;20039;-60
2021/03/07 02:14:18;;;;;;;5.68;2.55;;;5.50;74.20;;;;;;5082978;28;20032;-60
2021/03/07 02:16:44;;;;;;;3.67;2.63;;;5.50;74.40;;;;;;5082745;28;20724;-60
2021/03/07 02:19:10;;;;;;;5.20;3.10;;;5.60;74.50;;;;;;5082070;28;20077;-60
2021/03/07 02:21:47;;;;;;;5.53;2.53;;;5.50;74.60;;;;;;5082782;28;20465;-60
2021/03/07 02:24:14;;;;;;;4.15;2.85;;;5.60;74.80;;;;;;5081850;28;20125;-60
2021/03/07 02:26:51;;;;;;;4.35;2.70;;;5.60;74.70;;;;;;5082653;28;20040;-59
2021/03/07 02:29:20;;;;;;;4.65;3.25;;;5.60;74.60;;;;;;5081803;28;20241;-60
2021/03/07 02:31:52;;;;;;;3.38;2.72;;;5.60;74.40;;;;;;5082408;28;20028;-60
2021/03/07 02:34:40;;;;;;;4.30;2.83;;;5.60;74.20;;;;;;5079592;28;20048;-60
2021/03/07 02:37:12;;;;;;;4.97;2.45;;;5.50;74.50;;;;;;5081490;28;20027;-60
2021/03/07 02:39:40;;;;;;;7.38;2.75;;;5.50;74.60;;;;;;5081762;28;20550;-60
2021/03/07 02:42:12;;;;;;;5.45;2.85;;;5.50;74.00;;;;;;5083068;28;20558;-60
2021/03/07 02:44:43;;;;;;;5.75;2.45;;;5.50;74.50;;;;;;5082366;28;20056;-60
2021/03/07 02:47:12;;;;;;;5.30;2.47;;;5.40;74.40;;;;;;5081959;28;20028;-60
2021/03/07 02:49:38;;;;;;;3.08;2.30;;;5.30;74.20;;;;;;5082962;28;20044;-60
2021/03/07 02:52:06;;;;;;;4.90;2.33;;;5.30;74.60;;;;;;5081509;28;20399;-60
2021/03/07 02:54:36;;;;;;;3.55;2.22;;;5.20;74.50;;;;;;5081425;28;20032;-60
2021/03/07 02:57:03;;;;;;;2.38;2.08;;;5.20;74.40;;;;;;5081238;28;20039;-60
2021/03/07 02:59:32;;;;;;;4.93;2.30;;;5.20;74.60;;;;;;5082908;28;20032;-60
2021/03/07 03:02:04;;;;;;;7.47;3.78;;;5.20;74.20;;;;;;5081734;28;20089;-60
2021/03/07 03:04:31;;;;;;;6.07;2.10;;;5.10;73.80;;;;;;5082324;28;20043;-60
2021/03/07 03:06:57;;;;;;;3.20;2.00;;;5.00;74.30;;;;;;5081552;28;20603;-59
2021/03/07 03:09:26;;;;;;;4.50;2.20;;;5.00;74.20;;;;;;5081303;28;20645;-60
2021/03/07 03:11:56;;;;;;;3.58;1.85;;;5.00;74.60;;;;;;5081335;28;20043;-60
2021/03/07 03:14:23;;;;;;;5.45;1.90;;;4.90;74.50;;;;;;5081890;28;20040;-60
2021/03/07 03:16:52;;;;;;;3.40;2.08;;;5.00;74.40;;;;;;5080425;28;20039;-60
2021/03/07 03:19:21;;;;;;;2.63;1.70;;;5.00;74.20;;;;;;5081192;28;20043;-60
2021/03/07 03:21:47;;;;;;;2.58;1.83;;;5.00;73.70;;;;;;5078972;28;20114;-60
2021/03/07 03:24:13;;;;;;;6.38;1.88;;;5.00;73.90;;;;;;5079234;28;20109;-59
2021/03/07 03:26:40;;;;;;;2.80;1.80;;;5.00;73.40;;;;;;5080934;28;20058;-59
2021/03/07 03:29:07;;;;;;;5.22;1.95;;;5.00;74.00;;;;;;5080328;28;20130;-60
2021/03/07 03:31:34;;;;;;;5.13;1.83;;;4.90;73.80;;;;;;5080723;28;20048;-60
2021/03/07 03:34:01;;;;;;;4.93;2.00;;;4.80;73.60;;;;;;5080288;28;20047;-60
2021/03/07 03:36:28;;;;;;;7.22;2.00;;;4.80;74.40;;;;;;5078948;28;20043;-60
2021/03/07 03:39:15;;;;;;;4.90;2.38;;;4.70;74.70;;;;;;5080771;28;20055;-60
2021/03/07 03:41:43;;;;;;;3.40;2.00;;;4.70;74.40;;;;;;5080828;28;20088;-60
2021/03/07 03:44:12;;;;;;;3.55;1.80;;;4.60;73.70;;;;;;5080534;28;20040;-60
2021/03/07 03:46:39;;;;;;;5.45;2.15;;;4.60;74.20;;;;;;5080112;28;20024;-60
2021/03/07 03:49:32;;;;;;;4.05;1.80;;;4.60;74.20;;;;;;5075011;28;20416;-60
2021/03/07 03:52:04;;;;;;;4.38;2.08;;;4.60;73.00;;;;;;5077218;28;20024;-60
2021/03/07 03:54:34;;;;;;;3.85;1.50;;;4.60;73.30;;;;;;5079436;28;20156;-60
2021/03/07 03:57:01;;;;;;;3.88;1.80;;;4.60;73.70;;;;;;5078262;28;20096;-60
2021/03/07 03:59:30;;;;;;;7.35;1.98;;;4.60;73.40;;;;;;5079956;28;20487;-60
2021/03/07 04:01:58;;;;;;;3.42;1.77;;;4.60;73.40;;;;;;5077938;28;20081;-60
2021/03/07 04:04:26;;;;;;;9.95;2.30;;;4.50;74.20;;;;;;5079813;28;20032;-60
2021/03/07 04:06:53;;;;;;;6.90;2.00;;;4.50;73.00;;;;;;5079774;28;20044;-60
2021/03/07 04:09:19;;;;;;;4.88;1.70;;;4.50;72.90;;;;;;5077341;28;20028;-60
2021/03/07 04:11:46;;;;;;;5.47;2.10;;;4.50;73.10;;;;;;5080971;28;20055;-59
2021/03/07 04:14:12;;;;;;;4.38;1.40;;;4.50;72.50;;;;;;5079158;28;20032;-60
2021/03/07 04:16:38;;;;;;;4.40;1.85;;;4.50;72.00;;;;;;5079427;28;20024;-60
2021/03/07 04:19:04;;;;;;;5.22;1.63;;;4.50;72.90;;;;;;5079319;28;20044;-59
2021/03/07 04:21:31;;;;;;;2.80;1.90;;;4.50;72.20;;;;;;5080421;28;20066;-60
2021/03/07 04:23:56;;;;;;;6.78;2.20;;;4.60;71.70;;;;;;5079792;28;20055;-59
2021/03/07 04:26:23;;;;;;;3.85;2.05;;;4.60;72.10;;;;;;5080812;28;20131;-59
2021/03/07 04:28:49;;;;;;;2.72;1.75;;;4.50;71.60;;;;;;5082253;28;20044;-59
2021/03/07 04:31:15;;;;;;;5.28;1.83;;;4.40;71.60;;;;;;5082252;28;20036;-59
2021/03/07 04:33:42;;;;;;;4.65;2.00;;;4.50;71.50;;;;;;5082177;28;20028;-60
2021/03/07 04:36:08;;;;;;;5.82;2.20;;;4.50;71.20;;;;;;5079273;28;20047;-60
2021/03/07 04:38:35;;;;;;;5.32;2.00;;;4.40;70.60;;;;;;5083340;28;20028;-60
2021/03/07 04:41:01;;;;;;;3.40;1.90;;;4.40;70.90;;;;;;5083990;28;20496;-59
2021/03/07 04:43:28;;;;;;;4.70;1.88;;;4.40;70.90;;;;;;5083664;28;20081;-59
2021/03/07 04:45:54;;;;;;;7.15;2.60;;;4.50;71.30;;;;;;5082205;28;20066;-60
2021/03/07 04:48:20;;;;;;;4.78;2.08;;;4.50;70.80;;;;;;5082834;28;20027;-60
2021/03/07 04:50:45;;;;;;;4.13;1.90;;;4.50;71.10;;;;;;5083210;28;20039;-60
2021/03/07 04:53:11;;;;;;;4.80;1.83;;;4.50;71.30;;;;;;5082125;28;20034;-59
2021/03/07 04:55:37;;;;;;;6.13;1.95;;;4.40;71.00;;;;;;5083451;28;20066;-59
2021/03/07 04:58:02;;;;;;;7.53;2.20;;;4.40;71.00;;;;;;5082953;28;20111;-59
2021/03/07 05:00:28;;;;;;;3.53;1.95;;;4.40;71.30;;;;;;5083222;28;20035;-59
2021/03/07 05:02:54;;;;;;;4.50;1.90;;;4.40;70.90;;;;;;5081564;28;20111;-60
2021/03/07 05:05:19;;;;;;;6.03;2.40;;;4.40;71.60;;;;;;5079866;28;20047;-60
2021/03/07 05:07:45;;;;;;;3.42;1.95;;;4.20;71.50;;;;;;5082533;28;20043;-59
2021/03/07 05:10:11;;;;;;;4.20;2.10;;;4.30;72.00;;;;;;5083606;28;20107;-60
2021/03/07 05:12:37;;;;;;;2.95;1.77;;;4.30;72.00;;;;;;5083596;28;20070;-59
2021/03/07 05:15:05;;;;;;;4.03;2.05;;;4.30;71.60;;;;;;5082269;28;20072;-59
2021/03/07 05:17:31;;;;;;;4.60;1.80;;;4.30;71.70;;;;;;5083114;28;20043;-59
2021/03/07 05:19:56;;;;;;;6.53;2.00;;;4.30;71.40;;;;;;5083005;28;20030;-59
2021/03/07 05:22:22;;;;;;;7.50;2.05;;;4.40;71.40;;;;;;5064399;28;20388;-60
2021/03/07 05:24:48;;;;;;;3.25;1.63;;;4.30;71.30;;;;;;5082651;28;20539;-60
2021/03/07 05:27:14;;;;;;;5.53;2.53;;;4.40;71.00;;;;;;5081075;28;20842;-59
2021/03/07 05:29:39;;;;;;;6.22;1.90;;;4.40;70.60;;;;;;5081650;28;20035;-59
2021/03/07 05:32:06;;;;;;;6.07;2.00;;;4.40;71.50;;;;;;5083235;28;20551;-59
2021/03/07 05:34:31;;;;;;;2.75;1.60;;;4.40;70.30;;;;;;5082730;28;20036;-60
2021/03/07 05:36:57;;;;;;;4.10;1.75;;;4.50;70.20;;;;;;5081438;28;20495;-60
2021/03/07 05:39:25;;;;;;;2.72;1.42;;;4.50;69.90;;;;;;5081821;28;20061;-60
2021/03/07 05:41:52;;;;;;;2.30;1.80;;;4.50;70.30;;;;;;5083273;28;20069;-59
2021/03/07 05:44:18;;;;;;;3.33;1.95;;;4.50;69.80;;;;;;5082335;28;20036;-60
2021/03/07 05:46:44;;;;;;;2.67;1.40;;;4.40;69.90;;;;;;5081924;28;20112;-60
2021/03/07 05:49:10;;;;;;;4.25;1.90;;;4.50;70.00;;;;;;5077824;28;20409;-60
2021/03/07 05:51:36;;;;;;;3.72;1.70;;;4.50;69.90;;;;;;5082371;28;20036;-60
2021/03/07 05:54:02;;;;;;;2.88;1.75;;;4.50;70.00;;;;;;5082282;28;20048;-59
2021/03/07 05:56:29;;;;;;;7.55;1.88;;;4.50;70.00;;;;;;5081434;28;20036;-60
2021/03/07 05:58:57;;;;;;;2.70;1.60;;;4.50;69.70;;;;;;5081487;28;20438;-60
2021/03/07 06:01:23;;;;;;;4.25;1.83;;;4.50;69.80;;;;;;5081232;28;20032;-59
2021/03/07 06:03:48;;;;;;;3.47;1.60;;;4.40;69.40;;;;;;5081466;28;20032;-60
2021/03/07 06:06:14;;;;;;;4.72;1.70;;;4.40;70.00;;;;;;5081101;28;20044;-59
2021/03/07 06:08:41;;;;;;;2.15;1.45;;;4.20;69.50;;;;;;5080854;28;20032;-60
2021/03/07 06:11:06;;;;;;;4.63;1.77;;;4.20;70.20;;;;;;5082103;28;20054;-60
2021/03/07 06:13:40;;;;;;;3.97;1.67;;;4.30;70.00;;;;;;5081805;28;20563;-59
2021/03/07 06:16:12;;;;;;;4.65;1.60;;;4.30;69.80;;;;;;5081421;28;20825;-60
2021/03/07 06:18:45;;;;;;;2.83;1.67;;;4.30;69.90;;;;;;5081924;28;20039;-60
2021/03/07 06:21:31;;;;;;;3.90;1.40;;;4.30;69.30;;;;;;5081554;28;20035;-60
2021/03/07 06:23:58;;;;;;;2.25;1.30;;;4.40;69.40;;;;;;5078882;28;20056;-60
2021/03/07 06:26:24;;;;;;;2.47;1.50;;;4.40;69.70;;;;;;5080884;28;20032;-59
2021/03/07 06:29:10;;;;;;;3.58;1.80;;;4.50;69.50;;;;;;5081280;28;20573;-60
2021/03/07 06:31:36;;;;;;;4.75;1.63;;;4.50;69.10;;;;;;5081028;28;20036;-62
2021/03/07 06:34:02;;;;;;;3.50;1.63;;;4.30;69.20;;;;;;5081298;28;20341;-59
2021/03/07 06:36:29;;;;;;;4.72;1.35;;;4.30;69.50;;;;;;5080449;28;20047;-62
2021/03/07 06:38:58;;;;;;;2.90;1.52;;;4.40;69.10;;;;;;5084700;28;20032;-64
2021/03/07 06:41:26;;;;;;;4.78;1.83;;;4.50;68.60;;;;;;5083943;28;20040;-63
2021/03/07 06:44:04;;;;;;;5.30;1.80;;;4.50;68.20;;;;;;5083988;28;20179;-63
2021/03/07 06:46:36;;;;;;;8.55;1.90;;;4.50;67.40;;;;;;5079789;28;20688;-63
2021/03/07 06:49:03;;;;;;;5.05;1.60;;;4.60;67.60;;;;;;5081788;28;20500;-62
2021/03/07 06:51:34;;;;;;;2.60;1.20;;;4.60;67.40;;;;;;5081401;28;20028;-62
2021/03/07 06:54:19;;;;;;;3.85;1.67;;;4.70;66.80;;;;;;5080425;28;20040;-62
2021/03/07 06:56:47;;;;;;;2.63;1.27;;;4.60;67.20;;;;;;5076682;28;20063;-62
2021/03/07 06:59:20;;;;;;;2.72;1.50;;;4.70;66.60;;;;;;5079757;28;20028;-62
2021/03/07 07:01:48;;;;;;;4.32;2.00;;;4.70;66.50;;;;;;5075929;28;20028;-62
2021/03/07 07:04:15;;;;;;;5.45;1.70;;;4.70;66.50;;;;;;5080298;28;20186;-63
2021/03/07 07:06:42;;;;;;;4.22;2.03;;;4.70;66.60;;;;;;5073772;28;20035;-62
2021/03/07 07:09:10;;;;;;;1.83;1.25;;;4.80;66.30;;;;;;5080228;28;20028;-62
2021/03/07 07:11:46;;;;;;;3.50;1.08;;;4.90;65.70;;;;;;5081089;28;20498;-62
2021/03/07 07:14:14;;;;;;;3.22;1.27;;;5.00;64.80;;;;;;5080182;28;20118;-63
2021/03/07 07:16:40;;;;;;;2.92;1.60;;;4.90;64.60;;;;;;5080964;28;20035;-63
2021/03/07 07:19:06;;;;;;;2.47;1.00;;;5.00;65.50;;;;;;5080515;28;20499;-63
2021/03/07 07:21:32;;;;;;;2.83;1.23;;;5.00;64.80;;;;;;5080918;28;20040;-63
2021/03/07 07:23:58;;;;;;;1.23;0.90;;;5.00;65.40;;;;;;5081087;28;20042;-63
2021/03/07 07:26:24;;;;;;;3.22;1.48;;;5.00;65.00;;;;;;5080414;28;20068;-63
2021/03/07 07:28:50;;;;;;;3.47;1.15;;;5.00;64.30;;;;;;5079438;28;20089;-63
2021/03/07 07:31:32;;;;;;;1.35;1.25;;;5.00;64.30;;;;;;5079836;28;20038;-63
2021/03/07 07:34:14;;;;;;;2.30;1.10;;;5.00;63.90;;;;;;5080985;28;20036;-63
2021/03/07 07:36:54;;;;;;;4.30;1.20;;;5.10;64.60;;;;;;5079673;28;20725;-63
2021/03/07 07:39:33;;;;;;;2.83;1.20;;;5.10;64.90;;;;;;5078480;28;20551;-63
2021/03/07 07:42:34;;;;;;;1.73;1.33;;;5.20;65.30;;;;;;5080342;28;20043;-64
2021/03/07 07:45:12;;;;;;;6.20;1.88;;;5.20;64.70;;;;;;5078079;28;20083;-63
2021/03/07 07:47:45;;;;;;;3.45;1.00;;;5.10;64.60;;;;;;5080295;28;20123;-62
2021/03/07 07:50:30;;;;;;;4.13;2.67;;;5.10;64.10;;;;;;5080324;28;20035;-63
2021/03/07 07:53:03;;;;;;;5.90;2.22;;;5.20;64.60;;;;;;5079954;28;20027;-62
2021/03/07 07:55:50;;;;;;;4.65;1.42;;;5.20;64.10;;;;;;5072310;28;20118;-63
2021/03/07 07:58:38;;;;;;;6.82;3.65;;;5.30;63.60;;;;;;5079590;28;20754;-63
2021/03/07 08:01:06;;;;;;;5.30;2.08;;;5.30;63.20;;;;;;5080072;28;20095;-63
2021/03/07 08:03:37;;;;;;;12.70;4.07;;;5.20;63.40;;;;;;5079431;28;20791;-62
2021/03/07 08:06:04;;;;;;;18.73;7.55;;;5.20;63.70;;;;;;5078142;28;20480;-63
2021/03/07 08:08:33;;;;;;;9.73;3.38;;;5.20;64.20;;;;;;5080538;28;20820;-63
2021/03/07 08:11:00;;;;;;;5.32;1.92;;;5.30;63.60;;;;;;5081575;28;20039;-63
2021/03/07 08:13:28;;;;;;;2.25;0.98;;;5.30;62.80;;;;;;5082650;28;20622;-63
2021/03/07 08:15:58;;;;;;;3.03;1.40;;;5.40;62.60;;;;;;5083101;28;20537;-63
2021/03/07 08:18:48;;;;;;;2.75;1.60;;;5.40;62.80;;;;;;5082121;28;20065;-62
2021/03/07 08:21:16;;;;;;;2.50;1.55;;;5.20;62.80;;;;;;5082751;28;20031;-62
2021/03/07 08:24:11;;;;;;;11.95;4.47;;;5.20;63.70;;;;;;5078957;28;20182;-64
2021/03/07 08:26:58;;;;;;;19.33;7.60;;;5.30;63.10;;;;;;5068996;28;20048;-62
2021/03/07 08:29:44;;;;;;;4.18;1.63;;;5.30;64.50;;;;;;5084350;28;20056;-63
2021/03/07 08:32:29;;;;;;;3.28;1.80;;;5.20;63.70;;;;;;5083802;28;20040;-62
2021/03/07 08:34:58;;;;;;;2.30;1.55;;;5.10;64.00;;;;;;5082955;28;20032;-63
2021/03/07 08:37:24;;;;;;;6.05;1.80;;;5.00;64.20;;;;;;5083031;28;20085;-62
2021/03/07 08:40:29;;;;;;;2.08;1.30;;;5.10;64.60;;;;;;5082970;28;20142;-62
2021/03/07 08:43:21;;;;;;;3.30;2.13;;;5.10;63.90;;;;;;5069783;28;20052;-63
2021/03/07 08:46:13;;;;;;;2.08;1.50;;;5.20;64.00;;;;;;5082838;28;20084;-63
2021/03/07 08:48:41;;;;;;;2.50;1.52;;;5.20;63.80;;;;;;5079705;28;20031;-62
2021/03/07 08:51:08;;;;;;;4.43;1.77;;;5.20;64.00;;;;;;5080966;28;20127;-63
2021/03/07 08:53:36;;;;;;;2.53;1.80;;;5.30;64.30;;;;;;5081160;28;20495;-62
2021/03/07 08:56:03;;;;;;;2.47;1.45;;;5.40;63.90;;;;;;5082991;28;21031;-63
2021/03/07 08:58:30;;;;;;;3.58;1.77;;;5.40;63.50;;;;;;5082755;28;20785;-62
2021/03/07 09:00:58;;;;;;;7.85;2.80;;;5.50;63.10;;;;;;5081052;28;20032;-62
2021/03/07 09:03:25;;;;;;;9.70;4.32;;;5.40;62.80;;;;;;5080814;28;20027;-63
2021/03/07 09:05:51;;;;;;;5.80;2.58;;;5.40;62.80;;;;;;5080783;28;20209;-62
2021/03/07 09:08:25;;;;;;;3.20;1.80;;;5.60;62.80;;;;;;5080470;28;20036;-62
2021/03/07 09:11:02;;;;;;;2.90;2.28;;;5.70;62.70;;;;;;5081059;28;20565;-62
2021/03/07 09:13:30;;;;;;;5.50;1.80;;;5.70;62.10;;;;;;5079017;28;20483;-63
2021/03/07 09:15:57;;;;;;;3.92;1.90;;;5.70;62.30;;;;;;5080000;28;20134;-62
2021/03/07 09:18:29;;;;;;;5.60;2.78;;;5.60;62.60;;;;;;5078667;28;20024;-62
2021/03/07 09:21:01;;;;;;;3.95;3.10;;;5.70;62.80;;;;;;5080036;28;20688;-63
2021/03/07 09:23:44;;;;;;;13.73;9.85;;;5.70;62.50;;;;;;5079346;28;20036;-62
2021/03/07 09:26:16;;;;;;;4.45;2.03;;;5.70;61.30;;;;;;5079290;28;20059;-63
2021/03/07 09:28:48;;;;;;;4.90;2.33;;;5.80;61.80;;;;;;5075238;28;20453;-62
2021/03/07 09:31:30;;;;;;;9.50;5.93;;;5.90;61.70;;;;;;5080295;28;20112;-63
2021/03/07 09:33:57;;;;;;;11.88;5.68;;;5.90;61.90;;;;;;5075626;28;20043;-63
2021/03/07 09:36:25;;;;;;;8.70;4.38;;;6.00;61.90;;;;;;5079865;28;20035;-63
2021/03/07 09:38:52;;;;;;;8.95;2.33;;;6.10;61.00;;;;;;5079587;28;20028;-62
2021/03/07 09:41:31;;;;;;;6.78;3.10;;;6.10;60.70;;;;;;5078811;28;20036;-63
2021/03/07 09:44:03;;;;;;;6.50;3.40;;;6.00;61.60;;;;;;5078277;28;20663;-62
2021/03/07 09:46:29;;;;;;;7.15;3.30;;;6.00;61.70;;;;;;5077652;28;20034;-62
2021/03/07 09:48:58;;;;;;;11.93;4.97;;;5.80;61.50;;;;;;5076654;28;20105;-62
2021/03/07 09:51:30;;;;;;;5.13;2.60;;;5.80;62.10;;;;;;5078633;28;20127;-63
2021/03/07 09:53:57;;;;;;;7.05;3.15;;;5.70;62.10;;;;;;5077999;28;20044;-62
2021/03/07 09:56:31;;;;;;;7.65;2.50;;;5.70;61.80;;;;;;5074980;28;20036;-64
2021/03/07 09:59:18;;;;;;;7.22;3.40;;;5.80;61.60;;;;;;5078043;28;20600;-62
2021/03/07 10:01:45;;;;;;;;;;;5.80;61.60;;;;;;5075051;28;20024;-68
2021/03/07 10:04:32;;;;;;;4.18;2.63;;;5.80;62.10;;;;;;5077339;28;20384;-62
2021/03/07 10:07:17;;;;;;;4.03;2.60;;;5.90;62.30;;;;;;5077987;28;20039;-61
2021/03/07 10:10:23;;;;;;;9.50;3.95;;;6.10;61.80;;;;;;5073341;28;20127;-62
2021/03/07 10:12:57;;;;;;;5.00;2.50;;;6.10;60.70;;;;;;5030909;28;20040;-62
2021/03/07 10:15:27;;;;;;;18.33;2.45;;;6.00;60.80;;;;;;5072405;28;20222;-62
2021/03/07 10:17:58;;;;;;;6.05;2.58;;;5.90;61.30;;;;;;5076516;28;20032;-63
2021/03/07 10:20:33;;;;;;;2.80;2.10;;;5.90;61.90;;;;;;5077733;28;20028;-62
2021/03/07 10:22:59;;;;;;;6.03;2.70;;;5.90;62.30;;;;;;5077484;28;20500;-63
2021/03/07 10:25:26;;;;;;;6.13;3.30;;;6.00;61.90;;;;;;5077740;28;20044;-62
2021/03/07 10:28:00;;;;;;;4.45;2.58;;;6.00;60.90;;;;;;5077555;28;20043;-62
2021/03/07 10:30:53;;;;;;;6.32;2.50;;;6.00;60.50;;;;;;5077885;28;20032;-63
2021/03/07 10:33:28;;;;;;;8.52;2.72;;;6.10;61.50;;;;;;5072513;28;20141;-62
2021/03/07 10:36:20;;;;;;;5.38;2.20;;;6.20;60.30;;;;;;5077550;28;20562;-62
2021/03/07 10:38:51;;;;;;;3.88;2.20;;;6.20;61.10;;;;;;5071754;28;20032;-62
2021/03/07 10:41:33;;;;;;;4.00;2.25;;;6.20;60.50;;;;;;5076147;28;20036;-62
2021/03/07 10:44:01;;;;;;;5.32;2.38;;;6.30;60.70;;;;;;5077674;28;20062;-62
2021/03/07 10:46:39;;;;;;;6.07;2.75;;;6.20;60.50;;;;;;5076703;28;20541;-63
2021/03/07 10:49:10;;;;;;;4.95;2.20;;;6.10;59.90;;;;;;5076309;28;20031;-62
2021/03/07 10:51:37;;;;;;;4.57;2.03;;;6.10;61.40;;;;;;5077330;28;20606;-62
2021/03/07 10:54:04;;;;;;;8.23;2.88;;;6.20;61.10;;;;;;5078136;28;20078;-62
2021/03/07 10:56:34;;;;;;;3.80;2.38;;;6.40;60.80;;;;;;5077036;28;20031;-62
2021/03/07 10:59:00;;;;;;;5.75;3.10;;;6.40;59.50;;;;;;5078158;28;20532;-62
2021/03/07 11:01:27;;;;;;;3.92;2.15;;;6.50;59.30;;;;;;5078571;28;20043;-63
2021/03/07 11:03:53;;;;;;;7.75;4.80;;;6.50;58.80;;;;;;5077564;28;20032;-62
2021/03/07 11:06:19;;;;;;;8.02;4.07;;;6.40;59.50;;;;;;5078948;28;20043;-62
2021/03/07 11:08:46;;;;;;;10.90;5.68;;;6.50;58.60;;;;;;5079039;28;20043;-63
2021/03/07 11:11:12;;;;;;;5.43;2.30;;;6.50;59.00;;;;;;5078876;28;20035;-63
2021/03/07 11:13:37;;;;;;;4.63;2.60;;;6.60;59.40;;;;;;5077001;28;20798;-63
2021/03/07 11:16:03;;;;;;;4.63;1.73;;;6.60;57.70;;;;;;5076102;28;20072;-63
2021/03/07 11:18:29;;;;;;;3.70;1.88;;;6.50;58.00;;;;;;5073580;28;20044;-63
2021/03/07 11:20:56;;;;;;;4.80;2.53;;;6.60;58.40;;;;;;5076582;28;20116;-63
2021/03/07 11:23:22;;;;;;;5.03;2.08;;;6.50;57.70;;;;;;5076305;28;20968;-63
2021/03/07 11:25:47;;;;;;;5.18;2.60;;;6.40;58.80;;;;;;5076161;28;20181;-62
2021/03/07 11:28:13;;;;;;;3.20;2.40;;;6.30;58.80;;;;;;5076815;28;20036;-63
2021/03/07 11:30:39;;;;;;;4.90;2.35;;;6.30;59.00;;;;;;5076626;28;20172;-62
2021/03/07 11:33:06;;;;;;;8.40;3.72;;;6.40;59.60;;;;;;5076257;28;20040;-63
2021/03/07 11:35:32;;;;;;;4.63;2.55;;;6.50;59.00;;;;;;5076029;28;20815;-64
2021/03/07 11:37:58;;;;;;;8.27;3.60;;;6.60;58.50;;;;;;5077266;28;20115;-63
2021/03/07 11:40:25;;;;;;;4.43;2.50;;;6.60;58.50;;;;;;5076897;28;20217;-63
2021/03/07 11:42:51;;;;;;;7.78;3.35;;;6.60;58.40;;;;;;5077023;28;20028;-64
2021/03/07 11:45:16;;;;;;;4.95;2.90;;;6.50;58.30;;;;;;5076733;28;20093;-63
2021/03/07 11:47:42;;;;;;;6.00;2.58;;;6.60;58.80;;;;;;5076940;28;20070;-62
2021/03/07 11:50:09;;;;;;;6.18;3.10;;;6.60;58.20;;;;;;5076967;28;20046;-63
2021/03/07 11:52:35;;;;;;;6.03;2.60;;;6.50;58.00;;;;;;5076940;28;20036;-65
2021/03/07 11:55:00;;;;;;;5.93;2.70;;;6.50;58.70;;;;;;5076324;28;20716;-63
2021/03/07 11:57:27;;;;;;;5.95;3.13;;;6.60;58.20;;;;;;5076753;28;20587;-62
2021/03/07 11:59:53;;;;;;;4.93;2.28;;;6.60;58.50;;;;;;5076190;28;20139;-63
2021/03/07 12:02:18;;;;;;;6.50;3.55;;;6.70;59.60;;;;;;5076037;28;20127;-63
2021/03/07 12:04:44;;;;;;;6.85;2.88;;;6.80;58.50;;;;;;5072864;28;20032;-63
2021/03/07 12:07:10;;;;;;;8.38;3.58;;;6.80;58.00;;;;;;5076507;28;20400;-63
2021/03/07 12:09:36;;;;;;;5.70;2.40;;;6.80;58.40;;;;;;5075107;28;20039;-62
2021/03/07 12:12:02;;;;;;;3.80;2.88;;;6.80;58.20;;;;;;5076681;28;20036;-62
2021/03/07 12:14:28;;;;;;;5.43;3.22;;;6.80;58.10;;;;;;5076381;28;20040;-63
2021/03/07 12:16:54;;;;;;;4.72;2.65;;;6.80;58.50;;;;;;5076274;28;20053;-63
2021/03/07 12:19:21;;;;;;;6.95;2.95;;;6.90;58.00;;;;;;5073379;28;20491;-62
2021/03/07 12:21:47;;;;;;;5.47;2.67;;;6.80;58.50;;;;;;5076309;28;20024;-63
2021/03/07 12:24:13;;;;;;;6.18;2.85;;;6.80;58.10;;;;;;5076399;28;20101;-63
2021/03/07 12:26:39;;;;;;;5.95;2.70;;;6.70;57.70;;;;;;5076015;28;20093;-63
2021/03/07 12:29:05;;;;;;;4.25;2.67;;;6.60;58.40;;;;;;5075820;28;20127;-62
2021/03/07 12:31:31;;;;;;;4.88;2.35;;;6.70;58.90;;;;;;5075367;28;20036;-62
2021/03/07 12:33:57;;;;;;;4.82;3.05;;;6.70;57.50;;;;;;5076264;28;20059;-62
2021/03/07 12:36:22;;;;;;;5.47;2.50;;;6.70;58.00;;;;;;5075787;28;20546;-62
2021/03/07 12:38:48;;;;;;;5.55;2.65;;;6.70;58.90;;;;;;5075167;28;20139;-62
2021/03/07 12:41:14;;;;;;;8.77;2.55;;;6.70;57.90;;;;;;5076801;28;20036;-62
2021/03/07 12:43:39;;;;;;;3.75;2.35;;;6.70;58.80;;;;;;5075588;28;20146;-63
2021/03/07 12:46:05;;;;;;;3.55;2.22;;;6.70;58.40;;;;;;5077273;28;20926;-63
2021/03/07 12:48:31;;;;;;;3.80;2.45;;;6.70;58.90;;;;;;5074420;28;20397;-62
2021/03/07 12:50:57;;;;;;;5.40;2.38;;;6.70;58.20;;;;;;5075554;28;20483;-62
2021/03/07 12:53:22;;;;;;;6.47;2.65;;;6.70;58.20;;;;;;5075127;28;20595;-63
2021/03/07 12:55:48;;;;;;;5.25;2.80;;;6.70;58.50;;;;;;5075930;28;20043;-62
2021/03/07 12:58:13;;;;;;;8.07;2.92;;;6.70;58.90;;;;;;5077252;28;20089;-62
2021/03/07 13:00:39;;;;;;;6.70;2.53;;;6.70;59.20;;;;;;5078967;28;20031;-62
2021/03/07 13:03:05;;;;;;;6.70;2.92;;;6.70;58.80;;;;;;5078445;28;20575;-62
2021/03/07 13:05:31;;;;;;;5.68;2.08;;;6.60;58.90;;;;;;5078587;28;20120;-62
2021/03/07 13:07:56;;;;;;;6.45;2.47;;;6.50;58.60;;;;;;5079431;28;20055;-62
2021/03/07 13:10:22;;;;;;;5.05;1.92;;;6.40;58.50;;;;;;5077132;28;20058;-62